Time;durP1;ratioP1;P1;durP2;ratioP2;P2;SDS_P1;SDS_P2;PMS_P1;PMS_P2;Temp;Humidity;BMP_temperature;BMP_pressure;BME280_temperature;BME280_humidity;BME280_pressure;Samples;Min_cycle;Max_cycle;Signal;HPM_P1;HPM_P2
2022/07/03 00:01:01;;;;;;;15.60;14.00;;;;;;;17.24;88.06;97287.13;106198;1283;111372;-79
2022/07/03 00:03:32;;;;;;;14.60;13.10;;;;;;;17.21;88.25;97288.48;106370;1284;66078;-79
2022/07/03 00:06:03;;;;;;;14.90;13.40;;;;;;;17.22;88.51;97286.11;106396;1284;89325;-79
2022/07/03 00:08:35;;;;;;;16.50;12.70;;;;;;;17.27;88.76;97283.40;106330;1284;45864;-79
2022/07/03 00:11:08;;;;;;;14.90;13.40;;;;;;;17.25;88.70;97286.41;106511;1284;44766;-79
2022/07/03 00:13:40;;;;;;;16.60;14.40;;;;;;;17.21;88.89;97287.15;106543;1284;54071;-79
2022/07/03 00:16:11;;;;;;;15.50;14.00;;;;;;;17.13;89.22;97279.30;106362;1284;71383;-79
2022/07/03 00:18:42;;;;;;;16.90;14.30;;;;;;;17.07;89.40;97277.17;106508;1284;35501;-79
2022/07/03 00:21:23;;;;;;;14.00;12.50;;;;;;;17.02;89.64;97279.66;106511;1284;35359;-79
2022/07/03 00:24:04;;;;;;;14.90;12.10;;;;;;;16.96;89.90;97283.70;106510;1284;34106;-79
2022/07/03 00:26:40;;;;;;;14.10;12.60;;;;;;;16.98;89.91;97276.53;106419;1284;71247;-79
2022/07/03 00:29:14;;;;;;;14.20;12.70;;;;;;;16.97;89.99;97282.66;106534;1284;38004;-79
2022/07/03 00:31:46;;;;;;;14.50;13.00;;;;;;;17.04;89.96;97279.73;106555;1284;37530;-80
2022/07/03 00:34:21;;;;;;;14.20;12.70;;;;;;;17.10;89.75;97278.14;106587;1284;69424;-80
2022/07/03 00:36:53;;;;;;;13.60;12.20;;;;;;;17.16;89.72;97275.35;106433;1284;61254;-80
2022/07/03 00:39:24;;;;;;;14.40;11.70;;;;;;;17.22;89.47;97280.98;106501;1284;68317;-80
2022/07/03 00:42:05;;;;;;;13.00;11.10;;;;;;;17.26;89.38;97278.51;106334;1284;101656;-80
2022/07/03 00:44:46;;;;;;;13.50;12.10;;;;;;;17.30;89.26;97279.27;106561;1284;104627;-80
2022/07/03 00:47:19;;;;;;;13.40;12.00;;;;;;;17.34;89.02;97281.91;106678;1284;37948;-79
2022/07/03 00:49:52;;;;;;;13.60;12.20;;;;;;;17.37;88.73;97280.14;106675;1284;50300;-80
2022/07/03 00:52:24;;;;;;;12.50;11.20;;;;;;;17.36;88.63;97274.67;106540;1284;40841;-80
2022/07/03 00:55:00;;;;;;;11.70;10.50;;;;;;;17.37;88.48;97266.35;106506;1284;36087;-81
2022/07/03 00:57:32;;;;;;;10.70;9.60;;;;;;;17.37;88.15;97256.70;106816;1284;42736;-80
2022/07/03 01:00:04;;;;;;;12.20;10.90;;;;;;;17.36;88.15;97256.39;106615;1287;61905;-80
2022/07/03 01:02:46;;;;;;;12.90;11.50;;;;;;;17.40;88.17;97259.67;106789;1284;34257;-80
2022/07/03 01:05:26;;;;;;;14.60;12.20;;;;;;;17.43;88.10;97253.73;106399;1284;60687;-80
2022/07/03 01:08:02;;;;;;;;;;;;;;;17.40;87.96;97250.29;106337;1284;60709;-79
2022/07/03 01:10:44;;;;;;;11.80;10.60;;;;;;;17.40;87.96;97247.83;106497;1284;40759;-80
2022/07/03 01:13:19;;;;;;;12.90;10.40;;;;;;;17.36;87.91;97244.71;106550;1284;37331;-79
2022/07/03 01:15:59;;;;;;;13.10;11.60;;;;;;;17.34;87.93;97244.61;106472;1284;56645;-80
2022/07/03 01:18:39;;;;;;;13.80;12.40;;;;;;;17.33;87.98;97242.53;106233;1284;79325;-80
2022/07/03 01:21:16;;;;;;;18.40;13.60;;;;;;;17.32;88.00;97237.58;106127;1284;79177;-80
2022/07/03 01:24:06;;;;;;;12.10;10.80;;;;;;;17.34;88.15;97236.83;106638;1284;62114;-79
2022/07/03 01:26:42;;;;;;;11.70;10.50;;;;;;;17.34;88.06;97234.59;106800;1284;32921;-80
2022/07/03 01:29:19;;;;;;;11.80;10.60;;;;;;;17.34;87.99;97233.73;106555;1284;86564;-80
2022/07/03 01:31:52;;;;;;;12.70;11.30;;;;;;;17.37;88.10;97228.77;106812;1283;33104;-80
2022/07/03 01:34:26;;;;;;;13.50;12.10;;;;;;;17.40;88.13;97228.23;106817;1284;36615;-80
2022/07/03 01:37:01;;;;;;;17.80;12.20;;;;;;;17.43;88.13;97223.55;106789;1284;34759;-80
2022/07/03 01:39:35;;;;;;;12.30;11.00;;;;;;;17.48;88.19;97225.02;106643;1284;29739;-80
2022/07/03 01:42:09;;;;;;;11.70;10.00;;;;;;;17.47;88.00;97218.96;106541;1284;34576;-80
2022/07/03 01:44:41;;;;;;;12.50;11.10;;;;;;;17.49;87.92;97219.98;106539;1284;33061;-79
2022/07/03 01:47:13;;;;;;;12.80;11.40;;;;;;;17.50;87.87;97217.17;106516;1284;47214;-80
2022/07/03 01:49:45;;;;;;;13.40;12.00;;;;;;;17.51;87.87;97217.40;106509;1284;77385;-79
2022/07/03 01:52:18;;;;;;;13.60;12.20;;;;;;;17.52;87.81;97220.77;106612;1284;31479;-79
2022/07/03 01:54:51;;;;;;;12.30;11.00;;;;;;;17.50;87.69;97219.41;106387;1284;42435;-79
2022/07/03 01:57:25;;;;;;;12.90;11.00;;;;;;;17.48;87.71;97219.53;106533;1284;34800;-80
2022/07/03 02:00:00;;;;;;;12.40;11.10;;;;;;;17.48;87.69;97221.68;106381;1284;79477;-80
2022/07/03 02:02:34;;;;;;;12.20;10.90;;;;;;;17.48;87.64;97221.42;106632;1284;53989;-80
2022/07/03 02:05:12;;;;;;;12.50;11.20;;;;;;;17.50;87.69;97222.23;106855;1284;52831;-79
2022/07/03 02:07:55;;;;;;;12.80;11.50;;;;;;;17.51;87.51;97220.67;106723;1284;33195;-80
2022/07/03 02:10:35;;;;;;;12.80;11.30;;;;;;;17.49;87.43;97216.23;106485;1284;40176;-79
2022/07/03 02:13:16;;;;;;;11.60;9.90;;;;;;;17.48;87.42;97214.55;106371;1284;48586;-79
2022/07/03 02:15:51;;;;;;;11.00;9.90;;;;;;;17.47;87.27;97215.37;106506;1284;47289;-80
2022/07/03 02:18:29;;;;;;;10.50;9.30;;;;;;;17.44;87.20;97219.08;106620;1284;30272;-79
2022/07/03 02:21:11;;;;;;;10.90;9.50;;;;;;;17.41;87.24;97216.80;106433;1284;36769;-79
2022/07/03 02:23:54;;;;;;;11.80;10.60;;;;;;;17.39;87.31;97215.38;106453;1284;31253;-80
2022/07/03 02:26:33;;;;;;;11.70;10.50;;;;;;;17.39;87.39;97212.73;106412;1284;32591;-79
2022/07/03 02:29:08;;;;;;;11.20;10.10;;;;;;;17.35;87.31;97207.70;106567;1284;32863;-79
2022/07/03 02:31:48;;;;;;;12.40;11.00;;;;;;;17.21;87.28;97207.52;106514;1284;29903;-79
2022/07/03 02:34:23;;;;;;;10.90;9.80;;;;;;;17.13;87.69;97211.17;106685;1284;38106;-79
2022/07/03 02:37:00;;;;;;;10.90;9.70;;;;;;;17.15;88.03;97211.73;106581;1284;51892;-79
2022/07/03 02:39:39;;;;;;;11.70;10.10;;;;;;;17.18;88.08;97209.59;106612;1284;43027;-79
2022/07/03 02:42:29;;;;;;;12.00;10.70;;;;;;;17.15;88.08;97204.69;106474;1284;42523;-79
2022/07/03 02:45:03;;;;;;;14.00;11.60;;;;;;;17.08;88.06;97203.34;106375;1284;32186;-79
2022/07/03 02:47:44;;;;;;;11.50;10.20;;;;;;;17.05;88.32;97200.58;106461;1284;35576;-79
2022/07/03 02:50:23;;;;;;;10.60;9.60;;;;;;;17.02;88.33;97196.88;106554;1284;31574;-80
2022/07/03 02:53:04;;;;;;;10.70;9.70;;;;;;;16.97;88.46;97193.45;106421;1284;64336;-79
2022/07/03 02:55:44;;;;;;;11.60;10.10;;;;;;;16.97;88.68;97192.24;106417;1284;33731;-79
2022/07/03 02:58:50;;;;;;;12.40;10.30;;;;;;;17.01;89.05;97194.77;106389;1284;31083;-79
2022/07/03 03:01:40;;;;;;;12.10;10.90;;;;;;;17.06;89.02;97192.17;106329;1284;44166;-79
2022/07/03 03:04:13;;;;;;;14.30;12.60;;;;;;;17.13;89.09;97193.87;106326;1284;35102;-79
2022/07/03 03:06:56;;;;;;;12.30;10.90;;;;;;;17.18;89.05;97189.64;106496;1284;32624;-79
2022/07/03 03:09:33;;;;;;;11.40;9.80;;;;;;;17.24;88.91;97190.02;106459;1284;36943;-79
2022/07/03 03:12:09;;;;;;;11.20;10.10;;;;;;;17.27;88.87;97186.67;106602;1284;34938;-79
2022/07/03 03:14:44;;;;;;;12.00;10.70;;;;;;;17.28;88.79;97183.74;106494;1284;34614;-79
2022/07/03 03:17:19;;;;;;;13.60;11.10;;;;;;;17.30;88.78;97184.13;106510;1283;36276;-79
2022/07/03 03:19:56;;;;;;;12.60;11.30;;;;;;;17.32;88.60;97186.40;106458;1284;38316;-79
2022/07/03 03:22:34;;;;;;;10.80;9.70;;;;;;;17.31;88.55;97186.20;106400;1284;40935;-79
2022/07/03 03:25:06;;;;;;;11.40;10.30;;;;;;;17.31;88.46;97188.40;106354;1284;73605;-79
2022/07/03 03:27:37;;;;;;;11.80;9.90;;;;;;;17.30;88.50;97187.38;106326;1284;64608;-79
2022/07/03 03:30:12;;;;;;;11.60;10.40;;;;;;;17.32;88.50;97187.15;106197;1284;64015;-79
2022/07/03 03:32:44;;;;;;;13.50;11.10;;;;;;;17.27;88.29;97189.51;106395;1284;64393;-79
2022/07/03 03:35:16;;;;;;;11.50;10.30;;;;;;;17.28;88.56;97191.38;106488;1284;34036;-79
2022/07/03 03:37:48;;;;;;;10.60;9.50;;;;;;;17.30;88.69;97188.58;106490;1284;71942;-79
2022/07/03 03:40:20;;;;;;;10.70;9.20;;;;;;;17.34;88.74;97186.66;106545;1283;71023;-79
2022/07/03 03:42:51;;;;;;;9.40;8.50;;;;;;;17.41;88.85;97191.03;106682;1284;33084;-79
2022/07/03 03:45:22;;;;;;;10.70;9.00;;;;;;;17.48;88.72;97191.02;106472;1284;40852;-79
2022/07/03 03:47:54;;;;;;;11.00;9.90;;;;;;;17.56;88.66;97190.57;106590;1284;34238;-79
2022/07/03 03:50:25;;;;;;;11.50;10.40;;;;;;;17.58;88.29;97188.20;106358;1287;29791;-79
2022/07/03 03:52:57;;;;;;;12.20;10.50;;;;;;;17.60;88.28;97189.09;106525;1284;32489;-79
2022/07/03 03:55:30;;;;;;;10.80;9.60;;;;;;;17.64;88.07;97192.20;106520;1284;32470;-79
2022/07/03 03:58:04;;;;;;;10.70;9.00;;;;;;;17.62;88.05;97188.60;106603;1284;34477;-79
2022/07/03 04:00:37;;;;;;;9.00;8.10;;;;;;;17.67;88.35;97185.97;106526;1284;47841;-81
2022/07/03 04:03:08;;;;;;;9.90;8.10;;;;;;;17.72;88.27;97183.14;106319;1284;39027;-79
2022/07/03 04:05:40;;;;;;;9.10;8.20;;;;;;;17.81;88.07;97183.45;106272;1284;37745;-79
2022/07/03 04:08:16;;;;;;;9.40;8.40;;;;;;;17.91;88.04;97184.25;106152;1284;141757;-80
2022/07/03 04:10:47;;;;;;;8.90;8.00;;;;;;;18.00;87.89;97181.67;106085;1284;123823;-80
2022/07/03 04:13:19;;;;;;;11.00;7.40;;;;;;;18.07;87.53;97178.80;106435;1284;33191;-80
2022/07/03 04:15:55;;;;;;;8.80;7.90;;;;;;;18.15;87.31;97173.04;105912;1284;152874;-80
2022/07/03 04:18:26;;;;;;;9.00;7.50;;;;;;;18.27;87.17;97174.78;106108;1284;119744;-80
2022/07/03 04:20:57;;;;;;;9.50;7.60;;;;;;;18.45;87.07;97172.85;105248;1284;1383624;-79
2022/07/03 04:23:29;;;;;;;8.80;7.90;;;;;;;18.64;86.66;97170.42;106272;1284;98147;-80
2022/07/03 04:26:06;;;;;;;9.80;8.80;;;;;;;18.78;86.19;97171.75;106131;1284;103663;-80
2022/07/03 04:28:37;;;;;;;10.00;9.00;;;;;;;18.93;85.84;97171.33;106223;1284;136661;-79
2022/07/03 04:31:08;;;;;;;9.70;8.50;;;;;;;18.98;85.18;97166.31;106325;1283;106759;-79
2022/07/03 04:33:39;;;;;;;9.10;8.10;;;;;;;19.10;85.12;97169.59;106174;1284;115328;-81
2022/07/03 04:36:11;;;;;;;10.50;9.40;;;;;;;19.33;85.12;97167.95;106330;1284;115010;-80
2022/07/03 04:38:42;;;;;;;10.80;9.30;;;;;;;19.53;84.74;97164.71;106317;1284;111738;-80
2022/07/03 04:41:13;;;;;;;11.00;9.80;;;;;;;19.72;84.32;97162.91;106330;1284;143177;-80
2022/07/03 04:43:45;;;;;;;9.10;8.30;;;;;;;19.84;83.54;97165.36;106303;1284;116604;-81
2022/07/03 04:46:16;;;;;;;9.40;8.50;;;;;;;19.94;83.13;97164.45;106195;1284;112884;-81
2022/07/03 04:48:48;;;;;;;9.20;8.00;;;;;;;20.06;82.68;97168.76;106065;1284;145584;-80
2022/07/03 04:51:19;;;;;;;9.50;8.50;;;;;;;20.19;82.49;97170.89;106320;1284;111797;-80
2022/07/03 04:53:51;;;;;;;9.60;8.70;;;;;;;20.30;81.83;97172.67;106158;1284;119642;-80
2022/07/03 04:56:22;;;;;;;10.60;8.90;;;;;;;20.35;81.41;97172.80;106174;1284;109555;-80
2022/07/03 04:58:54;;;;;;;11.30;10.00;;;;;;;20.48;81.25;97170.32;106186;1284;89303;-80
2022/07/03 05:01:25;;;;;;;8.70;7.80;;;;;;;20.54;80.56;97168.77;106297;1284;124807;-79
2022/07/03 05:03:57;;;;;;;9.50;8.00;;;;;;;20.54;80.21;97164.83;106157;1285;105564;-79
2022/07/03 05:06:28;;;;;;;9.20;8.30;;;;;;;20.65;79.99;97163.63;106326;1285;119663;-80
2022/07/03 05:09:02;;;;;;;9.10;8.20;;;;;;;20.78;79.54;97157.77;104927;1284;1972717;-79
2022/07/03 05:11:34;;;;;;;10.50;9.40;;;;;;;20.86;78.75;97154.31;106474;1284;106334;-80
2022/07/03 05:14:05;;;;;;;10.50;8.80;;;;;;;20.95;78.58;97150.28;106467;1284;100688;-79
2022/07/03 05:16:37;;;;;;;11.00;9.50;;;;;;;21.06;78.04;97150.85;106124;1284;146861;-79
2022/07/03 05:19:09;;;;;;;10.40;9.40;;;;;;;21.14;77.60;97149.82;105921;1284;109988;-80
2022/07/03 05:21:40;;;;;;;10.10;9.10;;;;;;;21.40;77.50;97145.77;106230;1284;109270;-79
2022/07/03 05:24:12;;;;;;;8.40;7.50;;;;;;;21.73;76.74;97140.43;105921;1284;119141;-80
2022/07/03 05:26:43;;;;;;;8.80;7.80;;;;;;;22.02;75.75;97143.60;106324;1284;108618;-79
2022/07/03 05:29:15;;;;;;;10.20;9.20;;;;;;;22.45;74.80;97142.11;106103;1284;175924;-80
2022/07/03 05:31:46;;;;;;;9.30;8.50;;;;;;;22.97;74.74;97144.70;106072;1284;133610;-81
2022/07/03 05:34:19;;;;;;;9.60;8.70;;;;;;;25.29;74.55;97139.58;106214;1284;179837;-81
2022/07/03 05:36:51;;;;;;;10.10;9.00;;;;;;;26.85;69.65;97134.58;106197;1284;124201;-80
2022/07/03 05:39:34;;;;;;;8.60;7.90;;;;;;;28.22;67.10;97132.67;106192;1284;115616;-81
2022/07/03 05:42:10;;;;;;;8.20;7.40;;;;;;;29.98;61.74;97131.72;106521;1284;105102;-81
2022/07/03 05:44:42;;;;;;;8.80;8.00;;;;;;;30.83;57.65;97127.84;106163;1284;98025;-79
2022/07/03 05:47:14;;;;;;;8.20;7.50;;;;;;;30.17;55.47;97126.64;106306;1284;104448;-80
2022/07/03 05:49:47;;;;;;;7.10;6.50;;;;;;;30.76;55.08;97125.27;106049;1285;177113;-81
2022/07/03 05:52:22;;;;;;;7.00;6.40;;;;;;;31.88;51.28;97124.89;106326;1284;113606;-80
2022/07/03 05:54:54;;;;;;;6.80;6.20;;;;;;;31.76;50.22;97126.33;106154;1284;131785;-81
2022/07/03 05:57:26;;;;;;;6.50;5.90;;;;;;;32.41;50.16;97133.53;104969;1284;1566640;-79
2022/07/03 05:59:58;;;;;;;7.00;6.40;;;;;;;33.79;49.09;97128.86;106010;1284;165275;-80
2022/07/03 06:02:29;;;;;;;6.30;5.80;;;;;;;34.01;46.79;97126.45;104822;1284;1840297;-80
2022/07/03 06:05:01;;;;;;;5.70;5.30;;;;;;;33.18;46.03;97126.58;106536;1284;156893;-79
2022/07/03 06:07:33;;;;;;;7.00;6.30;;;;;;;33.74;43.28;97125.42;106529;1284;115474;-80
2022/07/03 06:10:07;;;;;;;6.80;6.10;;;;;;;34.63;44.13;97123.27;106334;1284;141837;-80
2022/07/03 06:12:40;;;;;;;7.00;6.30;;;;;;;36.05;43.16;97120.73;106366;1284;124446;-79
2022/07/03 06:15:13;;;;;;;6.30;5.70;;;;;;;36.98;40.47;97122.47;106327;1284;101737;-75
2022/07/03 06:17:44;;;;;;;6.10;5.60;;;;;;;37.69;39.01;97122.42;106388;1284;35495;-75
2022/07/03 06:20:16;;;;;;;5.60;5.20;;;;;;;38.43;38.67;97122.55;106365;1284;41581;-76
2022/07/03 06:22:50;;;;;;;6.10;5.60;;;;;;;38.23;34.17;97123.63;106482;1284;31075;-75
2022/07/03 06:25:21;;;;;;;5.80;5.20;;;;;;;36.63;34.71;97122.77;106246;1284;35866;-76
2022/07/03 06:27:53;;;;;;;5.30;4.90;;;;;;;36.61;36.55;97122.02;106366;1284;35444;-76
2022/07/03 06:30:24;;;;;;;5.70;5.30;;;;;;;36.61;36.00;97124.85;106404;1284;32520;-76
2022/07/03 06:32:59;;;;;;;5.60;5.20;;;;;;;34.95;36.30;97124.23;99829;1284;6854977;-76
2022/07/03 06:35:30;;;;;;;6.20;5.70;;;;;;;34.35;38.28;97122.39;106327;1284;37343;-77
2022/07/03 06:38:05;;;;;;;6.10;5.60;;;;;;;33.78;37.59;97122.50;106586;1284;46884;-78
2022/07/03 06:40:36;;;;;;;6.50;5.90;;;;;;;32.02;37.21;97120.18;106374;1284;48137;-84
2022/07/03 06:43:08;;;;;;;6.50;6.00;;;;;;;30.37;40.15;97116.17;106128;1284;265731;-89
2022/07/03 06:45:40;;;;;;;6.80;6.20;;;;;;;29.47;41.49;97120.47;106386;1284;122377;-82
2022/07/03 06:48:11;;;;;;;7.20;6.50;;;;;;;28.57;43.04;97121.23;106883;1284;38274;-84
2022/07/03 06:50:42;;;;;;;6.90;6.30;;;;;;;28.07;43.43;97117.27;106833;1284;36886;-85
2022/07/03 06:53:14;;;;;;;7.50;6.90;;;;;;;27.18;44.99;97116.08;106748;1284;39205;-85
2022/07/03 06:55:46;;;;;;;6.70;6.10;;;;;;;28.51;45.72;97115.55;106652;1284;50748;-85
2022/07/03 06:58:18;;;;;;;6.20;5.60;;;;;;;30.65;44.63;97114.71;105697;1284;1552792;-86
2022/07/03 07:00:49;;;;;;;6.00;5.50;;;;;;;31.35;42.58;97111.98;106631;1284;100574;-85
2022/07/03 07:03:21;;;;;;;5.80;5.30;;;;;;;31.89;43.18;97111.91;106854;1284;46463;-85
2022/07/03 07:05:52;;;;;;;5.10;4.70;;;;;;;33.45;41.44;97108.02;106849;1284;33683;-86
2022/07/03 07:08:24;;;;;;;5.00;4.60;;;;;;;34.65;38.50;97110.02;106880;1284;43826;-82
2022/07/03 07:10:55;;;;;;;5.20;4.50;;;;;;;34.53;38.02;97103.50;106487;1284;145943;-86
2022/07/03 07:13:26;;;;;;;5.60;5.10;;;;;;;33.74;37.85;97098.16;105591;1284;1798431;-88
2022/07/03 07:15:58;;;;;;;4.20;3.90;;;;;;;35.04;38.08;97097.88;106213;1284;144831;-85
2022/07/03 07:18:29;;;;;;;4.80;3.80;;;;;;;37.36;37.41;97097.61;106171;1284;120560;-86
2022/07/03 07:21:01;;;;;;;4.90;4.50;;;;;;;39.23;34.96;97095.74;106242;1284;154475;-86
2022/07/03 07:23:33;;;;;;;5.10;4.10;;;;;;;40.15;33.30;97094.75;106310;1284;131552;-77
2022/07/03 07:26:04;;;;;;;4.00;3.70;;;;;;;41.42;32.60;97092.98;106124;1284;102207;-78
2022/07/03 07:28:36;;;;;;;4.10;3.70;;;;;;;42.27;30.53;97092.91;104752;1284;2005949;-80
2022/07/03 07:31:09;;;;;;;4.90;4.40;;;;;;;40.28;30.29;97086.16;107113;1284;67485;-80
2022/07/03 07:33:40;;;;;;;6.60;4.20;;;;;;;38.77;30.34;97084.61;106866;1284;37914;-80
2022/07/03 07:36:14;;;;;;;5.00;4.40;;;;;;;36.73;31.54;97081.71;106731;1284;62725;-80
2022/07/03 07:38:48;;;;;;;4.80;4.20;;;;;;;37.35;32.28;97087.38;106775;1284;115400;-80
2022/07/03 07:41:20;;;;;;;5.00;4.10;;;;;;;38.73;31.27;97082.60;106899;1284;32715;-80
2022/07/03 07:43:51;;;;;;;3.70;3.30;;;;;;;40.33;30.74;97079.71;106710;1284;76614;-80
2022/07/03 07:46:23;;;;;;;4.30;3.90;;;;;;;41.98;29.02;97082.05;106780;1284;82652;-80
2022/07/03 07:48:54;;;;;;;4.30;3.90;;;;;;;40.90;27.67;97076.66;106792;1284;93177;-80
2022/07/03 07:51:26;;;;;;;3.90;3.60;;;;;;;39.00;29.14;97078.20;106819;1284;40016;-80
2022/07/03 07:53:59;;;;;;;3.70;3.40;;;;;;;40.28;29.33;97077.64;106513;1284;185897;-78
2022/07/03 07:56:31;;;;;;;3.80;3.40;;;;;;;42.17;28.32;97078.92;106425;1284;36048;-78
2022/07/03 07:59:02;;;;;;;3.50;3.30;;;;;;;43.57;26.87;97074.33;106450;1284;136694;-78
2022/07/03 08:07:24;;;;;;;3.20;2.90;;;;;;;42.19;24.74;97071.85;106416;1284;83174;-79
2022/07/03 08:09:55;;;;;;;3.90;3.60;;;;;;;42.59;23.36;97068.94;106418;1284;52864;-79
2022/07/03 08:12:27;;;;;;;5.00;3.10;;;;;;;42.48;25.25;97068.70;106524;1284;76201;-79
2022/07/03 08:14:58;;;;;;;3.80;3.50;;;;;;;44.28;25.05;97067.64;106425;1284;101488;-79
2022/07/03 08:17:30;;;;;;;3.20;2.90;;;;;;;45.26;23.55;97066.16;106209;1284;102712;-79
2022/07/03 08:20:01;;;;;;;3.70;3.40;;;;;;;44.92;21.39;97063.27;106599;1284;41668;-79
2022/07/03 08:22:32;;;;;;;3.80;3.50;;;;;;;44.78;23.07;97062.33;105733;1284;1248956;-79
2022/07/03 08:25:04;;;;;;;3.70;3.40;;;;;;;45.62;22.85;97065.95;106875;1284;49244;-78
2022/07/03 08:27:36;;;;;;;3.40;3.10;;;;;;;45.62;20.89;97065.27;106789;1284;113318;-79
2022/07/03 08:30:09;;;;;;;3.50;3.30;;;;;;;43.97;21.59;97070.58;106778;1283;36885;-79
2022/07/03 08:32:41;;;;;;;3.30;3.10;;;;;;;43.46;21.89;97067.06;106314;1284;88757;-79
2022/07/03 08:35:13;;;;;;;3.50;3.30;;;;;;;43.59;23.30;97067.90;106363;1284;82486;-79
2022/07/03 08:37:46;;;;;;;4.20;3.80;;;;;;;44.61;22.16;97067.78;106466;1284;89340;-79
2022/07/03 08:40:20;;;;;;;4.20;3.90;;;;;;;44.83;21.72;97065.92;106400;1284;32208;-79
2022/07/03 08:42:54;;;;;;;4.50;3.40;;;;;;;44.58;21.52;97063.13;106355;1284;63181;-78
2022/07/03 08:45:28;;;;;;;3.50;3.30;;;;;;;44.72;21.82;97060.80;106551;1284;33388;-79
2022/07/03 08:48:01;;;;;;;3.70;3.40;;;;;;;44.80;21.57;97058.68;104927;1284;1934138;-79
2022/07/03 08:50:36;;;;;;;3.60;3.30;;;;;;;45.48;21.83;97054.57;106631;1284;43859;-79
2022/07/03 08:53:07;;;;;;;4.00;3.70;;;;;;;45.38;20.31;97055.10;106580;1284;68517;-78
2022/07/03 08:55:39;;;;;;;4.20;3.60;;;;;;;42.32;20.96;97052.30;106640;1284;33903;-78
2022/07/03 08:58:14;;;;;;;4.40;4.00;;;;;;;39.67;23.13;97045.95;106404;1284;40014;-79
2022/07/03 09:00:46;;;;;;;4.80;4.40;;;;;;;37.24;24.83;97039.67;106862;1284;35178;-80
2022/07/03 09:03:18;;;;;;;5.10;4.40;;;;;;;35.16;28.16;97032.37;106744;1284;70027;-80
2022/07/03 09:05:51;;;;;;;5.30;4.20;;;;;;;34.39;29.64;97032.80;106770;1284;60420;-80
2022/07/03 09:08:25;;;;;;;4.70;4.40;;;;;;;33.37;30.36;97033.98;106816;1284;61029;-80
2022/07/03 09:10:56;;;;;;;9.20;5.60;;;;;;;30.99;33.12;97034.05;106853;1284;38634;-79
2022/07/03 09:13:30;;;;;;;5.60;5.10;;;;;;;29.57;35.35;97031.40;106848;1284;38985;-79
2022/07/03 09:16:01;;;;;;;5.50;5.00;;;;;;;28.96;36.60;97032.23;106642;1284;31160;-79
2022/07/03 09:18:44;;;;;;;7.70;5.60;;;;;;;28.82;37.75;97028.83;106928;1284;39127;-79
2022/07/03 09:21:16;;;;;;;6.10;5.50;;;;;;;28.90;38.42;97029.80;106833;1284;38920;-79
2022/07/03 09:23:48;;;;;;;6.00;5.40;;;;;;;29.35;37.88;97025.56;106631;1284;45776;-79
2022/07/03 09:26:25;;;;;;;6.20;5.30;;;;;;;29.42;37.72;97024.77;106778;1284;36657;-79
2022/07/03 09:28:57;;;;;;;8.10;5.70;;;;;;;29.05;38.28;97024.83;106191;1284;81031;-79
2022/07/03 09:31:30;;;;;;;5.80;5.30;;;;;;;28.72;39.17;97024.77;106342;1284;54873;-79
2022/07/03 09:34:07;;;;;;;6.80;5.80;;;;;;;28.73;38.73;97026.96;106502;1284;52800;-78
2022/07/03 09:36:47;;;;;;;5.90;5.30;;;;;;;27.90;40.76;97018.75;106463;1284;42281;-78
2022/07/03 09:39:17;;;;;;;;;;;;;;;28.11;41.26;97025.00;106428;1284;64562;-78
2022/07/03 09:41:58;;;;;;;7.20;6.50;;;;;;;27.81;41.00;97020.63;106549;1284;52757;-78
2022/07/03 09:44:35;;;;;;;6.60;5.80;;;;;;;27.19;41.63;97023.52;106445;1284;69907;-78
2022/07/03 09:47:12;;;;;;;7.10;5.80;;;;;;;26.67;43.00;97016.25;106534;1284;30427;-78
2022/07/03 09:49:57;;;;;;;6.50;5.90;;;;;;;26.27;43.09;97016.66;106598;1284;42067;-78
2022/07/03 09:52:39;;;;;;;7.30;6.60;;;;;;;26.14;43.91;97009.56;106534;1284;30547;-77
2022/07/03 09:55:21;;;;;;;7.90;6.90;;;;;;;26.29;44.65;97010.77;106572;1284;64320;-78
2022/07/03 09:58:04;;;;;;;6.90;6.20;;;;;;;26.57;44.92;97014.76;106310;1284;60630;-78
2022/07/03 10:00:38;;;;;;;7.30;6.30;;;;;;;27.10;44.20;97020.04;106451;1284;76371;-78
2022/07/03 10:03:12;;;;;;;6.30;5.70;;;;;;;27.48;43.69;97018.77;106487;1281;82544;-78
2022/07/03 10:05:45;;;;;;;8.10;6.00;;;;;;;27.84;43.48;97015.14;106559;1281;75762;-77
2022/07/03 10:08:17;;;;;;;6.60;5.90;;;;;;;28.00;42.92;97014.05;106529;1282;71060;-79
2022/07/03 10:10:50;;;;;;;6.60;5.80;;;;;;;27.68;43.18;97009.52;106652;1281;34997;-78
2022/07/03 10:13:23;;;;;;;6.80;6.20;;;;;;;27.64;42.83;97011.67;106597;1281;60898;-78
2022/07/03 10:15:56;;;;;;;6.90;6.20;;;;;;;27.03;43.20;97006.51;106551;1284;48287;-78
2022/07/03 10:18:33;;;;;;;6.90;6.20;;;;;;;26.94;44.49;97002.30;106632;1282;46659;-78
2022/07/03 10:21:08;;;;;;;6.30;5.70;;;;;;;26.99;44.49;97004.20;106766;1281;34935;-78
2022/07/03 10:23:43;;;;;;;7.60;6.30;;;;;;;27.27;45.15;97004.39;106227;1284;146256;-79
2022/07/03 10:26:15;;;;;;;8.00;5.40;;;;;;;27.67;44.51;97001.25;106447;1284;139925;-77
2022/07/03 10:28:47;;;;;;;6.30;5.40;;;;;;;27.93;44.46;96996.19;106636;1284;35663;-77
2022/07/03 10:31:19;;;;;;;6.50;5.90;;;;;;;27.77;42.94;96993.05;106497;1282;187574;-79
2022/07/03 10:33:55;;;;;;;6.70;5.90;;;;;;;27.01;44.19;96990.09;106741;1284;83176;-81
2022/07/03 10:36:28;;;;;;;6.60;6.00;;;;;;;26.89;44.33;96986.63;106858;1284;45607;-79
2022/07/03 10:39:04;;;;;;;6.40;5.70;;;;;;;26.98;44.98;96988.65;106885;1281;53521;-77
2022/07/03 10:44:48;;;;;;;6.70;6.00;;;;;;;27.69;45.17;96985.70;106998;1282;36887;-78
2022/07/03 10:47:48;;;;;;;8.30;5.70;;;;;;;27.68;43.23;96980.94;106857;1281;66656;-77
2022/07/03 10:50:21;;;;;;;6.50;5.90;;;;;;;27.08;44.62;96976.94;106817;1284;42214;-77
2022/07/03 10:52:53;;;;;;;6.60;5.70;;;;;;;27.28;45.15;96972.73;106500;1284;114160;-77
2022/07/03 10:55:25;;;;;;;6.70;6.10;;;;;;;27.65;45.37;96971.19;106888;1281;57812;-77
2022/07/03 10:58:12;;;;;;;6.40;5.80;;;;;;;28.02;45.24;96964.45;106839;1283;92147;-77
2022/07/03 11:00:58;;;;;;;6.80;5.30;;;;;;;28.24;44.38;96958.92;106886;1284;53187;-78
2022/07/03 11:03:58;;;;;;;6.50;5.70;;;;;;;28.22;43.95;96962.35;106776;1284;65825;-78
2022/07/03 11:06:59;;;;;;;6.40;5.80;;;;;;;27.75;44.33;96959.27;106510;1284;307651;-78
2022/07/03 11:09:33;;;;;;;6.80;5.70;;;;;;;28.06;44.87;96955.36;104442;1284;2156007;-79
2022/07/03 11:12:06;;;;;;;6.40;5.80;;;;;;;27.92;43.67;96951.16;106566;1284;121834;-78
2022/07/03 11:14:40;;;;;;;6.50;5.80;;;;;;;27.57;44.57;96955.56;106154;1284;96413;-80
2022/07/03 11:17:22;;;;;;;5.90;5.30;;;;;;;27.67;44.98;96955.41;105935;1284;123373;-79
2022/07/03 11:23:00;;;;;;;6.00;5.20;;;;;;;28.00;45.02;96946.21;106941;1282;32230;-79
2022/07/03 11:25:41;;;;;;;5.60;5.10;;;;;;;28.14;45.05;96944.01;106932;1281;35482;-79
2022/07/03 11:28:52;;;;;;;6.10;5.50;;;;;;;28.27;44.62;96947.57;106238;1284;142580;-80
2022/07/03 11:31:27;;;;;;;7.00;5.40;;;;;;;27.90;44.53;96943.06;106614;1284;140279;-79
2022/07/03 11:34:03;;;;;;;6.70;5.80;;;;;;;27.87;44.92;96946.95;106904;1284;37914;-79
2022/07/03 11:36:35;;;;;;;7.30;5.70;;;;;;;27.64;45.12;96944.17;106884;1284;53897;-80
2022/07/03 11:39:09;;;;;;;5.90;5.30;;;;;;;27.75;45.33;96944.86;106325;1283;264410;-79
2022/07/03 11:41:48;;;;;;;6.00;5.40;;;;;;;27.76;45.60;96938.57;106124;1284;151535;-79
2022/07/03 11:44:22;;;;;;;7.20;5.80;;;;;;;27.83;45.21;96941.02;105745;1284;97278;-79
2022/07/03 11:46:57;;;;;;;6.50;5.50;;;;;;;27.42;44.84;96941.94;106145;1284;93243;-80
2022/07/03 11:49:29;;;;;;;6.90;5.40;;;;;;;27.30;45.88;96945.20;106132;1283;114543;-81
2022/07/03 11:52:04;;;;;;;6.00;5.40;;;;;;;27.60;46.23;96941.66;105871;1284;132303;-79
2022/07/03 11:54:53;;;;;;;6.20;5.50;;;;;;;27.77;45.43;96939.59;106404;1283;133414;-80
2022/07/03 11:57:25;;;;;;;6.40;5.80;;;;;;;27.93;45.63;96935.22;106332;1281;144358;-79
2022/07/03 12:00:06;;;;;;;7.20;5.90;;;;;;;28.03;45.28;96934.48;106493;1284;97429;-79
2022/07/03 12:02:51;;;;;;;6.10;5.50;;;;;;;27.64;44.63;96934.61;105766;1284;154083;-80